Time;durP1;ratioP1;P1;durP2;ratioP2;P2;SDS_P1;SDS_P2;PMS_P1;PMS_P2;Temp;Humidity;BMP_temperature;BMP_pressure;BME280_temperature;BME280_humidity;BME280_pressure;Samples;Min_cycle;Max_cycle;Signal;HPM_P1;HPM_P2
2021/04/18 00:00:23;;;;;;;22.73;9.82;;;9.80;99.90;;;10.17;70.76;102344.19;5074425;28;20105;-72
2021/04/18 00:02:51;;;;;;;21.80;9.27;;;9.80;99.90;;;10.12;71.22;102340.56;5074348;28;20048;-72
2021/04/18 00:05:22;;;;;;;19.77;9.60;;;9.80;99.90;;;9.90;71.36;102321.56;5073211;28;20044;-72
2021/04/18 00:07:51;;;;;;;22.77;9.25;;;9.70;99.90;;;9.89;70.82;102309.22;5073991;28;20051;-73
2021/04/18 00:10:21;;;;;;;19.42;9.00;;;9.70;99.90;;;10.07;70.35;102332.50;5073052;28;20036;-72
2021/04/18 00:12:48;;;;;;;20.70;9.47;;;9.70;99.90;;;10.08;70.56;102329.00;5074241;28;20048;-72
2021/04/18 00:15:18;;;;;;;18.98;8.95;;;9.70;99.90;;;10.09;70.39;102332.53;5074095;28;20520;-72
2021/04/18 00:17:45;;;;;;;19.88;9.63;;;9.70;99.90;;;10.12;69.87;102336.19;5074300;28;20048;-72
2021/04/18 00:20:14;;;;;;;16.67;8.55;;;9.80;99.90;;;10.04;70.40;102322.75;5074161;28;20045;-72
2021/04/18 00:22:43;;;;;;;26.92;9.23;;;9.70;99.90;;;10.08;70.10;102320.19;5089459;28;20518;-72
2021/04/18 00:25:13;;;;;;;21.02;9.52;;;9.70;99.90;;;10.01;70.19;102322.69;5073804;28;20037;-72
2021/04/18 00:27:41;;;;;;;18.65;9.05;;;9.70;99.90;;;10.03;69.74;102315.69;5072568;28;20052;-72
2021/04/18 00:30:11;;;;;;;20.65;9.63;;;9.70;99.90;;;10.17;69.32;102323.94;5074059;28;20055;-72
2021/04/18 00:32:40;;;;;;;20.88;9.32;;;9.80;99.90;;;10.24;69.29;102315.25;5074095;28;20102;-72
2021/04/18 00:35:09;;;;;;;20.10;9.50;;;9.90;99.90;;;10.22;69.39;102318.75;5073740;28;20048;-72
2021/04/18 00:37:37;;;;;;;19.13;8.80;;;9.90;99.90;;;10.05;69.79;102302.50;5089296;28;20080;-72
2021/04/18 00:40:09;;;;;;;24.08;9.63;;;9.80;99.90;;;10.14;69.55;102313.31;5073662;28;20384;-72
2021/04/18 00:42:37;;;;;;;12.32;7.72;;;9.80;99.90;;;10.01;69.71;102308.56;5073482;28;20052;-72
2021/04/18 00:45:06;;;;;;;14.65;9.48;;;9.70;99.90;;;10.08;69.25;102318.44;5073752;28;20050;-72
2021/04/18 00:47:34;;;;;;;15.57;10.02;;;9.70;99.90;;;9.92;69.48;102314.56;5073670;28;20055;-72
2021/04/18 00:50:01;;;;;;;14.10;9.77;;;9.60;99.90;;;9.76;69.98;102306.25;5072149;28;20074;-72
2021/04/18 00:52:29;;;;;;;12.45;8.95;;;9.40;99.90;;;9.72;70.41;102296.47;5073445;28;20044;-72
2021/04/18 00:54:56;;;;;;;13.88;8.85;;;9.40;99.90;;;9.76;70.39;102299.25;5073311;28;20040;-72
2021/04/18 00:57:25;;;;;;;10.55;8.15;;;9.40;99.90;;;9.68;71.31;102294.63;5073373;28;20044;-72
2021/04/18 00:59:54;;;;;;;13.68;8.73;;;9.30;99.90;;;9.67;71.12;102285.84;5072219;28;20507;-72
2021/04/18 01:02:21;;;;;;;12.27;8.68;;;9.30;99.90;;;9.64;70.98;102287.53;5072061;28;20044;-72
2021/04/18 01:04:50;;;;;;;17.70;9.90;;;9.30;99.90;;;9.63;70.92;102286.63;5073216;28;20105;-72
2021/04/18 01:07:17;;;;;;;16.80;9.48;;;9.30;99.90;;;9.63;70.38;102285.72;5072978;28;20136;-72
2021/04/18 01:09:45;;;;;;;20.67;10.38;;;9.30;99.90;;;9.66;70.34;102284.03;5088899;28;20049;-72
2021/04/18 01:12:12;;;;;;;13.93;8.88;;;9.30;99.90;;;9.58;70.58;102285.63;5071912;28;20055;-72
2021/04/18 01:14:41;;;;;;;14.95;9.05;;;9.30;99.90;;;9.64;70.08;102272.53;5073060;28;20083;-72
2021/04/18 01:17:09;;;;;;;17.98;10.05;;;9.30;99.90;;;9.67;69.69;102277.00;5071834;28;20063;-71
2021/04/18 01:19:37;;;;;;;17.10;9.80;;;9.30;99.90;;;9.69;70.18;102275.28;5073048;28;20044;-72
2021/04/18 01:22:08;;;;;;;15.27;9.15;;;9.30;99.90;;;9.56;69.79;102273.25;5088584;28;20076;-71
2021/04/18 01:24:42;;;;;;;14.73;9.18;;;9.20;99.90;;;9.46;70.21;102274.78;5071586;28;20056;-72
2021/04/18 01:27:23;;;;;;;17.27;8.95;;;9.10;99.90;;;9.41;70.50;102276.41;5072961;28;20131;-72
2021/04/18 01:29:51;;;;;;;16.33;9.70;;;9.00;99.90;;;9.36;71.87;102270.16;5072869;28;20067;-72
2021/04/18 01:32:22;;;;;;;15.10;9.52;;;9.00;99.90;;;9.35;71.48;102265.72;5072748;28;20094;-71
2021/04/18 01:34:50;;;;;;;;;;;9.00;99.90;;;9.36;72.00;102264.88;5072703;28;20059;-72
2021/04/18 01:37:20;;;;;;;18.85;9.45;;;9.00;99.90;;;9.38;71.77;102270.19;5072840;28;19946;-71
2021/04/18 01:39:48;;;;;;;12.25;8.80;;;9.00;99.90;;;9.34;71.85;102263.94;5088327;28;20146;-72
2021/04/18 01:42:16;;;;;;;17.05;9.50;;;9.00;99.90;;;9.34;72.05;102274.50;5072668;28;20047;-72
2021/04/18 01:44:44;;;;;;;14.30;8.55;;;9.00;99.90;;;9.35;72.50;102264.84;5072591;28;20056;-72
2021/04/18 01:47:12;;;;;;;16.92;8.80;;;9.00;99.90;;;9.29;72.02;102262.94;5088057;28;20060;-72
2021/04/18 01:49:40;;;;;;;11.18;8.05;;;9.00;99.90;;;9.24;71.93;102266.31;5088315;28;20503;-72
2021/04/18 01:52:08;;;;;;;8.77;7.72;;;8.90;99.90;;;9.28;71.10;102269.09;5072757;28;20048;-72
2021/04/18 01:54:36;;;;;;;10.10;8.27;;;9.00;99.90;;;9.25;71.05;102266.38;5071280;28;20101;-72
2021/04/18 01:57:04;;;;;;;9.23;7.28;;;9.00;99.90;;;9.13;70.51;102267.84;5072626;28;20044;-71
2021/04/18 01:59:35;;;;;;;8.85;7.97;;;8.80;99.90;;;9.07;71.45;102263.31;5070986;28;20068;-72
2021/04/18 02:02:21;;;;;;;8.48;7.65;;;8.70;99.90;;;8.91;71.65;102261.13;5072770;28;20055;-71
2021/04/18 02:04:57;;;;;;;9.18;8.23;;;8.60;99.90;;;8.86;71.79;102254.88;5088047;28;20565;-72
2021/04/18 02:07:25;;;;;;;16.42;8.48;;;8.50;99.90;;;8.86;72.04;102254.88;5087939;28;20057;-72
2021/04/18 02:09:55;;;;;;;14.23;8.32;;;8.50;99.90;;;8.87;71.92;102257.53;5071027;28;20632;-71
2021/04/18 02:12:23;;;;;;;15.25;8.85;;;8.50;99.90;;;8.90;72.42;102264.66;5071259;28;20512;-72
2021/04/18 02:14:51;;;;;;;11.27;8.38;;;8.50;99.90;;;8.91;72.90;102258.50;5071176;28;20049;-72
2021/04/18 02:17:22;;;;;;;8.48;7.70;;;8.50;99.90;;;8.85;73.03;102253.97;5087967;28;20059;-71
2021/04/18 02:19:50;;;;;;;8.05;7.25;;;8.50;99.90;;;8.87;73.00;102262.81;5087744;28;20052;-71
2021/04/18 02:22:19;;;;;;;7.60;6.90;;;8.50;99.90;;;8.06;72.71;102116.56;5070986;28;20044;-72
2021/04/18 02:24:50;;;;;;;10.88;5.85;;;8.50;99.90;;;8.62;72.94;102246.31;5070870;28;20048;-71
2021/04/18 02:27:20;;;;;;;6.82;6.15;;;8.40;99.90;;;8.55;72.57;102255.84;5072272;28;20509;-71
2021/04/18 02:29:56;;;;;;;25.80;6.50;;;8.30;99.90;;;8.27;72.93;102229.59;5072262;28;20036;-71
2021/04/18 02:32:27;;;;;;;6.57;5.95;;;8.10;99.90;;;8.40;72.94;102250.13;5072191;28;20132;-71
2021/04/18 02:35:01;;;;;;;6.03;5.63;;;8.10;99.90;;;8.32;72.36;102246.44;5072164;28;20040;-71
2021/04/18 02:37:29;;;;;;;5.72;5.43;;;8.00;99.90;;;8.31;72.43;102249.00;5087884;28;20469;-71
2021/04/18 02:39:56;;;;;;;6.30;5.90;;;7.90;99.90;;;8.26;72.61;102245.38;5087815;28;20122;-71
2021/04/18 02:42:25;;;;;;;5.70;5.28;;;7.90;99.90;;;8.02;73.21;102211.28;5087684;28;20045;-72
2021/04/18 02:44:54;;;;;;;5.68;5.38;;;7.90;99.90;;;8.22;73.23;102252.28;5070785;28;20051;-71
2021/04/18 02:47:25;;;;;;;10.32;5.55;;;7.90;99.90;;;7.96;72.98;102246.28;5073095;28;20036;-71
2021/04/18 02:49:54;;;;;;;6.43;5.93;;;7.70;99.90;;;7.88;73.47;102237.25;5075989;28;20044;-70
2021/04/18 02:52:22;;;;;;;7.22;6.72;;;7.60;99.90;;;7.93;73.81;102250.56;5091567;28;20551;-71
2021/04/18 02:54:50;;;;;;;5.68;5.28;;;7.60;99.90;;;7.90;73.86;102234.66;5091290;28;20047;-71
2021/04/18 02:57:21;;;;;;;5.47;5.15;;;7.50;99.90;;;7.96;73.86;102243.63;5091220;28;20059;-71
2021/04/18 02:59:50;;;;;;;5.88;5.50;;;7.60;99.90;;;7.97;73.74;102237.53;5074395;28;20052;-71
2021/04/18 03:02:19;;;;;;;6.20;5.65;;;7.60;99.90;;;8.03;73.70;102236.81;5075442;28;20047;-71
2021/04/18 03:04:49;;;;;;;5.53;5.22;;;7.70;99.90;;;8.02;73.47;102243.81;5091390;28;20056;-71
2021/04/18 03:07:17;;;;;;;6.43;5.90;;;7.70;99.90;;;7.94;73.50;102244.44;5075553;28;20044;-71
2021/04/18 03:09:45;;;;;;;5.88;5.07;;;7.60;99.90;;;7.97;74.01;102241.91;5091000;28;20044;-71
2021/04/18 03:12:13;;;;;;;5.13;4.82;;;7.60;99.90;;;7.98;74.02;102234.03;5075456;28;20040;-71
2021/04/18 03:14:45;;;;;;;5.85;5.55;;;7.70;99.90;;;7.97;73.81;102244.53;5074300;28;20139;-71
2021/04/18 03:17:18;;;;;;;6.18;5.78;;;7.70;99.90;;;7.98;74.08;102241.94;5091403;28;20105;-71
2021/04/18 03:19:53;;;;;;;5.95;5.60;;;7.60;99.90;;;7.79;73.92;102239.63;5074047;28;20139;-71
2021/04/18 03:22:21;;;;;;;5.45;5.13;;;7.50;99.90;;;7.67;75.03;102241.91;5090845;28;20049;-71
2021/04/18 03:24:49;;;;;;;5.13;4.80;;;7.30;99.90;;;7.60;75.11;102233.78;5073849;28;20086;-71
2021/04/18 03:27:18;;;;;;;4.95;4.60;;;7.30;99.90;;;7.70;75.47;102244.66;5074918;28;20068;-71
2021/04/18 03:29:51;;;;;;;6.50;6.00;;;7.40;99.90;;;7.80;75.46;102238.78;5075309;28;20063;-71
2021/04/18 03:32:19;;;;;;;5.80;5.40;;;7.50;99.90;;;7.85;74.92;102229.28;5075195;28;20052;-72
2021/04/18 03:34:50;;;;;;;6.05;5.65;;;7.50;99.90;;;7.86;74.35;102228.41;5073847;28;20102;-71
2021/04/18 03:37:17;;;;;;;7.00;6.40;;;7.50;99.90;;;7.36;73.85;102111.97;5074983;28;20045;-71
2021/04/18 03:39:45;;;;;;;5.93;5.43;;;7.70;99.90;;;8.03;73.63;102227.13;5090479;28;20049;-71
2021/04/18 03:42:13;;;;;;;6.50;6.10;;;7.70;99.90;;;8.02;73.21;102224.47;5075078;28;20042;-71
2021/04/18 03:44:41;;;;;;;6.07;5.68;;;7.70;99.90;;;8.07;73.39;102225.50;5074989;28;20117;-71
2021/04/18 03:47:08;;;;;;;6.32;5.93;;;7.70;99.90;;;8.02;73.21;102227.09;5074824;28;20097;-71
2021/04/18 03:49:54;;;;;;;6.43;6.03;;;7.70;99.90;;;8.08;72.75;102212.38;5074686;28;20048;-71
2021/04/18 03:52:30;;;;;;;7.13;6.32;;;7.70;99.90;;;8.11;72.69;102201.91;5090538;28;20049;-71
2021/04/18 03:54:57;;;;;;;9.77;7.45;;;7.80;99.90;;;8.26;72.76;102211.09;5073501;28;20152;-71
2021/04/18 03:57:25;;;;;;;10.40;6.50;;;7.90;99.90;;;8.36;73.14;102211.41;5089857;28;20041;-70
2021/04/18 03:59:53;;;;;;;6.82;6.43;;;8.00;99.90;;;8.39;72.55;102213.19;5089656;28;20045;-71
2021/04/18 04:02:21;;;;;;;6.88;6.38;;;8.00;99.90;;;8.21;72.74;102214.47;5090042;28;20044;-71
2021/04/18 04:04:49;;;;;;;6.22;5.60;;;7.90;99.90;;;8.22;72.15;102212.75;5073340;28;20415;-71
2021/04/18 04:07:19;;;;;;;7.53;6.93;;;7.90;99.90;;;8.20;72.80;102212.69;5074511;28;20047;-71
2021/04/18 04:09:48;;;;;;;8.63;6.15;;;7.90;99.90;;;7.87;72.84;102210.88;5090015;28;20048;-71
2021/04/18 04:12:16;;;;;;;68.43;8.32;;;7.60;99.90;;;7.09;73.18;102133.13;5089892;28;20056;-71
2021/04/18 04:14:45;;;;;;;17.63;6.63;;;7.30;99.90;;;7.31;73.68;102217.13;5072883;28;20052;-71
2021/04/18 04:17:13;;;;;;;23.90;6.77;;;7.00;99.90;;;7.05;74.51;102218.06;5074076;28;20053;-71
2021/04/18 04:20:05;;;;;;;7.37;6.77;;;6.70;99.90;;;7.14;75.17;102216.59;5063680;28;20056;-71
2021/04/18 04:22:53;;;;;;;7.40;6.80;;;6.70;99.90;;;7.13;75.12;102221.81;5074117;28;20048;-71
2021/04/18 04:25:22;;;;;;;8.10;7.50;;;6.80;99.90;;;7.25;74.91;102228.38;5073988;28;20052;-71
2021/04/18 04:27:49;;;;;;;8.30;7.60;;;6.90;99.90;;;7.43;74.41;102225.41;5073844;28;20551;-71
2021/04/18 04:30:17;;;;;;;7.97;7.13;;;7.10;99.90;;;7.57;73.93;102223.19;5074141;28;20079;-71
2021/04/18 04:32:44;;;;;;;8.73;7.83;;;7.30;99.90;;;7.66;73.79;102224.34;5074037;28;20059;-71
2021/04/18 04:35:14;;;;;;;7.97;7.37;;;7.30;99.90;;;7.76;73.59;102228.13;5073943;28;20059;-71
2021/04/18 04:37:41;;;;;;;8.47;7.63;;;7.40;99.90;;;7.80;73.02;102230.88;5073826;28;20123;-71
2021/04/18 04:40:10;;;;;;;8.20;7.60;;;7.50;99.90;;;7.76;73.54;102233.41;5073633;28;20047;-71
2021/04/18 04:42:38;;;;;;;9.07;7.03;;;7.50;99.90;;;7.72;73.88;102232.41;5073887;28;20048;-71
2021/04/18 04:45:07;;;;;;;8.55;7.75;;;7.40;99.90;;;7.10;73.94;102127.03;5073738;28;20755;-70
2021/04/18 04:47:35;;;;;;;9.70;7.95;;;7.40;99.90;;;7.65;74.39;102227.81;5073643;28;20044;-71
2021/04/18 04:50:03;;;;;;;16.93;7.00;;;7.40;99.90;;;7.51;74.63;102230.91;5073519;28;20051;-71
2021/04/18 04:52:31;;;;;;;41.83;7.78;;;7.20;99.90;;;7.27;75.38;102223.16;5073445;28;20052;-70
2021/04/18 04:54:58;;;;;;;9.52;8.57;;;7.00;99.90;;;7.35;75.76;102226.91;5073398;28;20068;-71
2021/04/18 04:57:27;;;;;;;11.45;9.00;;;7.00;99.90;;;7.41;75.85;102236.72;5073408;28;20119;-71
2021/04/18 04:59:54;;;;;;;12.53;9.93;;;7.10;99.90;;;7.43;75.76;102232.41;5073462;28;20048;-71
2021/04/18 05:02:21;;;;;;;11.77;9.82;;;7.10;99.90;;;7.53;75.94;102235.34;5073280;28;20056;-71
2021/04/18 05:04:49;;;;;;;10.93;9.95;;;7.20;99.90;;;7.57;75.75;102242.47;5073231;28;20037;-71
2021/04/18 05:07:17;;;;;;;12.23;11.00;;;7.20;99.90;;;7.52;75.06;102241.47;5073046;28;20798;-71
2021/04/18 05:09:45;;;;;;;13.03;10.77;;;7.20;99.90;;;7.63;75.14;102247.03;5073556;28;20059;-71
2021/04/18 05:12:12;;;;;;;11.70;10.50;;;7.30;99.90;;;7.73;75.06;102243.81;5073188;28;20052;-71
2021/04/18 05:14:40;;;;;;;13.88;10.95;;;7.40;99.90;;;7.91;74.41;102249.63;5071858;28;20090;-71
2021/04/18 05:17:08;;;;;;;12.27;10.98;;;7.60;99.90;;;7.85;74.68;102245.09;5072997;28;20590;-71
2021/04/18 05:19:36;;;;;;;12.13;10.93;;;7.50;99.90;;;7.82;74.86;102236.22;5071653;28;20053;-71
2021/04/18 05:22:03;;;;;;;12.82;11.55;;;7.50;99.90;;;7.86;75.06;102249.50;5072775;28;20390;-71
2021/04/18 05:24:31;;;;;;;11.43;10.27;;;7.50;99.90;;;7.95;75.29;102257.69;5073053;28;20106;-71
2021/04/18 05:26:58;;;;;;;13.10;10.00;;;7.60;99.90;;;7.92;74.96;102257.56;5072902;28;20045;-71
2021/04/18 05:29:26;;;;;;;14.10;10.75;;;7.60;99.90;;;7.96;75.80;102262.06;5071609;28;20044;-71
2021/04/18 05:31:55;;;;;;;12.32;11.10;;;7.60;99.90;;;8.19;75.87;102260.97;5072921;28;20046;-71
2021/04/18 05:34:23;;;;;;;16.98;12.02;;;7.80;99.90;;;8.37;76.29;102262.34;5072694;28;20045;-71
2021/04/18 05:36:51;;;;;;;15.25;12.95;;;7.90;99.90;;;8.54;76.83;102258.41;5072881;28;20067;-71
2021/04/18 05:39:18;;;;;;;13.68;11.88;;;8.10;99.90;;;8.76;76.70;102263.41;5071605;28;20048;-71
2021/04/18 05:41:46;;;;;;;12.63;11.30;;;8.40;99.90;;;9.04;76.02;102286.97;5072714;28;20052;-71
2021/04/18 05:44:14;;;;;;;12.43;11.13;;;8.60;99.90;;;9.22;76.70;102266.31;5072589;28;20499;-71
2021/04/18 05:46:42;;;;;;;11.48;10.27;;;8.80;99.90;;;9.53;75.96;102273.16;5072555;28;20082;-71
2021/04/18 05:49:11;;;;;;;14.88;12.70;;;9.10;99.90;;;9.90;74.40;102265.19;5072516;28;20056;-71
2021/04/18 05:51:39;;;;;;;21.17;13.18;;;9.50;99.90;;;10.16;73.61;102276.31;5088057;28;20068;-70
2021/04/18 05:54:07;;;;;;;15.40;12.10;;;9.80;99.90;;;10.19;72.89;102268.44;5072653;28;20036;-71
2021/04/18 05:56:35;;;;;;;17.85;12.40;;;9.90;99.90;;;10.30;73.62;102272.19;5072504;28;20098;-71
2021/04/18 05:59:03;;;;;;;13.88;11.50;;;10.00;99.90;;;10.43;72.62;102268.91;5072532;28;20045;-71
2021/04/18 06:01:32;;;;;;;20.55;11.20;;;10.10;99.90;;;10.59;72.15;102255.06;5087899;28;20044;-71
2021/04/18 06:04:00;;;;;;;23.63;10.77;;;10.20;99.90;;;10.89;70.93;102266.22;5072408;28;20075;-71
2021/04/18 06:06:29;;;;;;;20.63;10.70;;;10.50;99.90;;;10.86;70.74;102272.34;5072388;28;20094;-71
2021/04/18 06:08:57;;;;;;;19.17;10.82;;;10.50;99.90;;;10.87;71.75;102273.22;5072782;28;20059;-71
2021/04/18 06:11:24;;;;;;;21.08;11.38;;;10.50;99.90;;;10.96;71.44;102268.09;5071082;28;20040;-71
2021/04/18 06:13:51;;;;;;;15.80;9.93;;;10.60;99.90;;;11.16;70.41;102269.31;5070926;28;20091;-71
2021/04/18 06:16:19;;;;;;;19.15;10.38;;;10.80;99.90;;;11.28;69.20;102271.25;5071240;28;20565;-71
2021/04/18 06:18:47;;;;;;;24.35;10.18;;;10.90;99.90;;;11.24;68.56;102254.44;5087966;28;20159;-71
2021/04/18 06:21:15;;;;;;;16.50;10.70;;;11.00;99.90;;;11.43;68.21;102271.47;5072796;28;20153;-71
2021/04/18 06:23:44;;;;;;;21.17;9.65;;;11.10;99.90;;;11.49;68.30;102272.47;5076424;28;20074;-71
2021/04/18 06:26:12;;;;;;;16.40;9.38;;;11.20;99.90;;;11.58;68.31;102275.22;5076188;28;20048;-72
2021/04/18 06:28:40;;;;;;;18.20;9.15;;;11.20;99.90;;;11.66;68.19;102278.91;5076007;28;20095;-72
2021/04/18 06:31:07;;;;;;;16.33;9.25;;;11.30;99.90;;;11.53;68.46;102273.38;5076166;28;20086;-72
2021/04/18 06:33:35;;;;;;;22.58;9.63;;;11.30;99.90;;;11.56;68.05;102282.25;5076212;28;20052;-71
2021/04/18 06:36:08;;;;;;;19.38;8.73;;;11.20;99.90;;;11.68;66.94;102282.47;5076015;28;20123;-71
2021/04/18 06:38:35;;;;;;;14.93;8.15;;;11.30;99.90;;;11.61;65.92;102272.59;5075837;28;20056;-71
2021/04/18 06:41:04;;;;;;;16.20;8.73;;;11.30;99.90;;;11.49;65.82;102277.75;5075749;28;20401;-72
2021/04/18 06:43:32;;;;;;;16.83;8.10;;;11.20;99.90;;;11.40;66.49;102279.38;5076026;28;20045;-72
2021/04/18 06:46:00;;;;;;;15.82;8.82;;;11.10;99.90;;;11.51;65.97;102270.72;5075864;28;20060;-72
2021/04/18 06:48:35;;;;;;;17.95;8.65;;;11.20;99.90;;;11.67;65.60;102277.16;5075882;28;20070;-72
2021/04/18 06:51:04;;;;;;;14.70;8.50;;;11.30;99.90;;;11.81;65.21;102280.88;5075959;28;20051;-72
2021/04/18 06:53:31;;;;;;;14.57;8.75;;;11.50;99.90;;;11.77;64.76;102284.34;5075533;28;20049;-72
2021/04/18 06:56:05;;;;;;;15.32;7.97;;;11.50;99.90;;;11.99;64.77;102283.75;5075569;28;20076;-72
2021/04/18 06:58:34;;;;;;;19.20;9.00;;;11.60;99.90;;;12.15;64.42;102284.84;5075280;28;20135;-72
2021/04/18 07:01:02;;;;;;;17.55;8.30;;;11.80;99.90;;;12.04;64.92;102258.19;5073873;28;20518;-72
2021/04/18 07:03:30;;;;;;;19.48;8.85;;;11.80;99.90;;;12.08;64.00;102286.53;5074782;28;20048;-72
2021/04/18 07:05:59;;;;;;;16.70;8.13;;;11.80;99.90;;;12.01;63.27;102289.09;5074911;28;20045;-72
2021/04/18 07:08:30;;;;;;;14.23;8.25;;;11.70;99.90;;;11.93;63.19;102281.03;5074006;28;20048;-72
2021/04/18 07:11:13;;;;;;;16.58;8.88;;;11.60;99.90;;;11.71;62.83;102257.78;5075059;28;20044;-72
2021/04/18 07:13:43;;;;;;;14.90;7.90;;;11.60;99.90;;;11.93;63.53;102265.13;5075102;28;20041;-72
2021/04/18 07:16:25;;;;;;;17.65;8.95;;;11.70;99.90;;;12.32;63.69;102280.63;5075220;28;20052;-72
2021/04/18 07:18:54;;;;;;;15.73;8.25;;;11.90;99.90;;;12.46;63.27;102284.31;5075369;28;20052;-72
2021/04/18 07:21:23;;;;;;;21.10;8.10;;;12.10;99.90;;;12.86;62.64;102283.81;5075237;28;20079;-72
2021/04/18 07:24:04;;;;;;;16.98;9.82;;;12.40;99.90;;;13.18;60.85;102294.75;5075075;28;20502;-72
2021/04/18 07:26:33;;;;;;;19.77;9.35;;;12.80;99.90;;;13.28;60.57;102300.13;5074987;28;20048;-72
2021/04/18 07:29:13;;;;;;;21.98;9.38;;;13.00;99.90;;;13.29;59.67;102291.31;5090215;28;20519;-72
2021/04/18 07:31:42;;;;;;;17.67;9.40;;;13.10;99.90;;;13.50;59.86;102301.19;5074583;28;20070;-72
2021/04/18 07:34:11;;;;;;;15.07;8.80;;;13.20;99.90;;;13.52;59.59;102292.34;5073552;28;20491;-72
2021/04/18 07:36:41;;;;;;;17.45;9.55;;;13.20;99.90;;;13.43;58.65;102238.25;5075116;28;20048;-72
2021/04/18 07:39:11;;;;;;;22.83;9.85;;;13.40;99.90;;;13.93;58.63;102294.34;5074741;28;20048;-72
2021/04/18 07:41:41;;;;;;;22.23;9.67;;;13.60;99.90;;;14.20;57.75;102299.78;5089856;28;20056;-73
2021/04/18 07:44:14;;;;;;;18.13;9.52;;;13.80;99.90;;;14.35;56.90;102302.53;5074671;28;20148;-72
2021/04/18 07:46:48;;;;;;;16.63;9.27;;;14.00;99.90;;;14.64;56.58;102286.59;5090180;28;20049;-70
2021/04/18 07:49:17;;;;;;;18.10;10.00;;;14.30;99.90;;;14.79;56.15;102276.00;5074578;28;20049;-70
2021/04/18 07:51:46;;;;;;;23.08;8.88;;;14.50;99.90;;;14.93;56.36;102277.78;5074648;28;20053;-71
2021/04/18 07:54:17;;;;;;;16.48;9.70;;;14.60;99.90;;;14.84;56.01;102272.44;5074242;28;20103;-72
2021/04/18 07:56:50;;;;;;;16.73;9.68;;;14.60;99.90;;;14.70;55.69;102263.53;5074203;28;20044;-62
2021/04/18 07:59:21;;;;;;;14.90;9.60;;;14.40;99.90;;;14.74;56.18;102257.34;5074398;28;20055;-61
2021/04/18 08:01:48;;;;;;;19.02;9.50;;;14.50;99.90;;;14.55;55.56;102258.22;5073051;28;20502;-61
2021/04/18 08:04:19;;;;;;;19.00;10.50;;;14.30;99.90;;;14.87;56.11;102266.22;5074319;28;20098;-62
2021/04/18 08:06:47;;;;;;;19.25;10.02;;;14.50;99.90;;;14.98;55.62;102259.13;5074281;28;20062;-62
2021/04/18 08:09:19;;;;;;;19.00;8.93;;;14.70;99.90;;;15.33;54.60;102255.53;5072941;28;20106;-62
2021/04/18 08:12:12;;;;;;;18.15;9.32;;;15.00;99.90;;;15.07;54.98;102244.03;5074030;28;20062;-61
2021/04/18 08:14:42;;;;;;;18.45;9.27;;;15.00;99.90;;;14.83;54.95;102254.66;5074411;28;20052;-65
2021/04/18 08:17:12;;;;;;;15.15;8.07;;;14.60;99.90;;;15.11;54.39;102255.56;5074294;28;20105;-62
2021/04/18 08:19:54;;;;;;;17.20;8.60;;;14.80;99.90;;;14.85;54.73;102247.56;5074115;28;20044;-62
2021/04/18 08:22:22;;;;;;;16.05;9.57;;;14.60;99.90;;;15.08;54.73;102252.88;5088955;28;20781;-62
2021/04/18 08:25:07;;;;;;;19.33;8.57;;;14.70;99.90;;;14.89;54.88;102262.66;5073445;28;20090;-61
2021/04/18 08:28:01;;;;;;;20.13;8.45;;;14.60;99.90;;;14.97;54.96;102255.56;5073722;28;20048;-61
2021/04/18 08:30:30;;;;;;;18.15;9.20;;;14.60;99.90;;;15.16;54.38;102261.75;5073758;28;20487;-72
2021/04/18 08:32:57;;;;;;;16.13;8.65;;;14.80;99.90;;;15.38;53.51;102258.19;5073716;28;20400;-71
2021/04/18 08:35:29;;;;;;;14.75;9.18;;;15.10;99.90;;;15.75;52.73;102264.34;5073714;28;20048;-72
2021/04/18 08:38:20;;;;;;;18.23;8.85;;;15.40;99.90;;;16.11;52.37;102265.09;5088977;28;20044;-71
2021/04/18 08:40:47;;;;;;;;;;;15.80;99.90;;;16.32;52.00;102272.09;5074136;28;20454;-72
2021/04/18 08:43:20;;;;;;;14.80;8.82;;;16.10;99.90;;;16.47;50.48;102273.81;5073493;28;19956;-76
2021/04/18 08:45:50;;;;;;;15.07;8.63;;;16.30;99.90;;;16.56;51.40;102268.44;5072953;28;20036;-70
2021/04/18 08:48:17;;;;;;;14.93;9.15;;;16.30;99.90;;;16.68;49.98;102271.91;5071845;28;20044;-71
2021/04/18 08:50:56;;;;;;;14.32;8.90;;;16.50;99.90;;;16.30;49.85;102267.69;5073103;28;20041;-69
2021/04/18 08:53:24;;;;;;;16.38;8.52;;;16.20;99.90;;;16.34;50.19;102269.44;5073154;28;20055;-70
2021/04/18 08:55:54;;;;;;;17.67;9.63;;;16.20;99.90;;;16.61;50.43;102278.19;5073002;28;20041;-69
2021/04/18 08:58:38;;;;;;;17.55;8.57;;;16.30;99.90;;;16.69;49.74;102279.03;5072923;28;20071;-71
2021/04/18 09:01:08;;;;;;;13.13;8.60;;;16.50;99.90;;;16.50;49.10;102257.78;5072958;28;20518;-68
2021/04/18 09:03:37;;;;;;;14.57;8.13;;;16.50;99.90;;;16.32;49.89;102274.75;5072996;28;20411;-70
2021/04/18 09:06:17;;;;;;;19.75;8.68;;;16.10;99.90;;;16.62;49.35;102268.38;5072939;28;20063;-70
2021/04/18 09:08:52;;;;;;;21.48;9.93;;;16.30;99.90;;;16.42;49.00;102264.91;5071380;28;20080;-74
2021/04/18 09:11:19;;;;;;;13.75;8.38;;;16.10;99.90;;;15.77;48.90;102148.72;5072698;28;20045;-75
2021/04/18 09:13:56;;;;;;;20.92;8.63;;;16.20;99.90;;;16.20;49.36;102254.34;5071594;28;20098;-71
2021/04/18 09:16:26;;;;;;;15.25;9.05;;;16.10;99.90;;;16.45;49.95;102260.47;5072928;28;20419;-82
2021/04/18 09:18:55;;;;;;;14.68;8.80;;;16.30;99.90;;;16.46;49.60;102262.22;5072671;28;20041;-75
2021/04/18 09:21:26;;;;;;;14.18;8.13;;;16.30;99.90;;;16.57;49.46;102257.72;5072350;28;20514;-74
2021/04/18 09:24:01;;;;;;;15.27;8.75;;;16.40;99.90;;;16.50;48.50;102261.34;5072695;28;20082;-70
2021/04/18 09:26:29;;;;;;;20.88;9.63;;;16.30;99.90;;;16.57;49.26;102265.75;5072746;28;20052;-71
2021/04/18 09:29:12;;;;;;;17.40;9.05;;;16.30;99.90;;;16.75;49.01;102262.94;5072355;28;20055;-77
2021/04/18 09:32:04;;;;;;;19.20;8.43;;;16.50;99.90;;;16.99;48.26;102272.56;5072507;28;20407;-75
2021/04/18 09:34:33;;;;;;;15.73;7.97;;;16.80;99.90;;;17.00;47.97;102272.56;5072815;28;20483;-76
2021/04/18 09:37:05;;;;;;;19.77;8.98;;;16.80;99.90;;;16.59;48.45;102268.44;5088181;28;20056;-77
2021/04/18 09:39:35;;;;;;;15.82;8.60;;;16.50;99.90;;;16.27;49.01;102277.47;5072687;28;20048;-78
2021/04/18 09:42:04;;;;;;;15.90;8.90;;;16.10;99.90;;;16.31;49.22;102281.03;5071275;28;20155;-81
2021/04/18 09:44:40;;;;;;;17.08;8.35;;;16.00;99.90;;;16.51;48.96;102264.91;5072305;28;20138;-81
2021/04/18 09:47:22;;;;;;;12.52;8.00;;;16.30;99.90;;;16.90;48.90;102262.81;5072177;28;20506;-83
2021/04/18 09:49:58;;;;;;;13.93;8.50;;;16.70;99.90;;;17.45;47.69;102278.38;5072056;28;20518;-83
2021/04/18 09:52:33;;;;;;;14.73;7.70;;;17.10;99.90;;;17.06;48.02;102210.09;5070986;28;20127;-83
2021/04/18 09:55:23;;;;;;;14.85;7.95;;;17.20;99.90;;;17.41;47.33;102268.59;5070828;28;20051;-78
2021/04/18 09:57:54;;;;;;;;;;;17.30;99.90;;;17.00;47.36;102274.31;5069458;28;20052;-81
2021/04/18 10:00:37;;;;;;;13.68;8.13;;;16.90;99.90;;;16.52;47.79;102245.31;5072331;28;19928;-79
2021/04/18 10:03:11;;;;;;;13.80;7.82;;;16.60;99.90;;;16.44;49.03;102269.34;5071075;28;20048;-72
2021/04/18 10:05:58;;;;;;;20.13;7.93;;;16.30;99.90;;;16.43;49.07;102240.00;5072333;28;20075;-79
2021/04/18 10:08:28;;;;;;;15.30;9.25;;;16.40;99.90;;;16.43;48.47;102264.03;5087771;28;20048;-82
2021/04/18 10:10:57;;;;;;;19.45;8.40;;;16.30;99.90;;;16.50;49.35;102269.34;5072103;28;20052;-78
2021/04/18 10:13:43;;;;;;;16.23;8.38;;;16.30;99.90;;;16.23;49.73;102262.38;5071812;28;20053;-77
2021/04/18 10:16:23;;;;;;;14.93;7.75;;;16.10;99.90;;;16.28;48.61;102268.56;5071679;28;20056;-76
2021/04/18 10:19:07;;;;;;;13.30;8.65;;;16.20;99.90;;;16.32;49.70;102264.09;5072076;28;20049;-71
2021/04/18 10:21:35;;;;;;;20.20;9.45;;;16.20;99.90;;;16.31;49.91;102280.13;5071991;28;20056;-73
2021/04/18 10:24:03;;;;;;;14.05;9.10;;;16.10;99.90;;;16.41;50.15;102279.19;5071797;28;20037;-73
2021/04/18 10:26:31;;;;;;;12.93;7.85;;;16.10;99.90;;;16.54;50.42;102265.78;5072300;28;20080;-73
2021/04/18 10:29:01;;;;;;;18.27;8.82;;;16.30;99.90;;;16.53;49.76;102274.66;5087436;28;20389;-75